sensor_id;sensor_type;location;lat;lon;timestamp;pressure;altitude;pressure_sealevel;temperature;humidity
64610;BME280;51019;46.090;6.350;2023-04-19T00:00:57;96617.75;;;4.06;100.00
64610;BME280;51019;46.090;6.350;2023-04-19T00:03:28;96748.13;;;4.87;100.00
64610;BME280;51019;46.090;6.350;2023-04-19T00:05:56;96623.47;;;4.23;100.00
64610;BME280;51019;46.090;6.350;2023-04-19T00:08:25;96612.97;;;4.12;100.00
64610;BME280;51019;46.090;6.350;2023-04-19T00:10:52;96687.16;;;4.67;100.00
64610;BME280;51019;46.090;6.350;2023-04-19T00:13:20;96759.81;;;5.19;100.00
64610;BME280;51019;46.090;6.350;2023-04-19T00:15:48;96770.22;;;5.19;100.00
64610;BME280;51019;46.090;6.350;2023-04-19T00:18:18;96579.41;;;3.96;100.00
64610;BME280;51019;46.090;6.350;2023-04-19T00:20:48;96712.69;;;4.60;100.00
64610;BME280;51019;46.090;6.350;2023-04-19T00:23:20;96768.94;;;4.99;100.00
64610;BME280;51019;46.090;6.350;2023-04-19T00:25:50;96569.94;;;3.70;100.00
64610;BME280;51019;46.090;6.350;2023-04-19T00:28:17;96587.84;;;4.00;100.00
64610;BME280;51019;46.090;6.350;2023-04-19T00:30:45;96648.81;;;3.93;100.00
64610;BME280;51019;46.090;6.350;2023-04-19T00:33:13;96597.53;;;3.84;100.00
64610;BME280;51019;46.090;6.350;2023-04-19T00:35:41;96693.66;;;4.34;100.00
64610;BME280;51019;46.090;6.350;2023-04-19T00:38:10;96584.81;;;3.54;100.00
64610;BME280;51019;46.090;6.350;2023-04-19T00:40:37;96630.91;;;3.76;100.00
64610;BME280;51019;46.090;6.350;2023-04-19T00:43:06;96645.34;;;3.80;100.00
64610;BME280;51019;46.090;6.350;2023-04-19T00:45:34;96724.47;;;4.26;100.00
64610;BME280;51019;46.090;6.350;2023-04-19T00:48:02;96634.75;;;3.70;100.00
64610;BME280;51019;46.090;6.350;2023-04-19T00:50:30;96574.06;;;3.60;100.00
64610;BME280;51019;46.090;6.350;2023-04-19T00:52:59;96638.28;;;4.09;100.00
64610;BME280;51019;46.090;6.350;2023-04-19T00:55:28;96617.25;;;3.86;100.00
64610;BME280;51019;46.090;6.350;2023-04-19T00:57:56;96564.47;;;3.48;100.00
64610;BME280;51019;46.090;6.350;2023-04-19T01:00:24;96695.56;;;4.06;100.00
64610;BME280;51019;46.090;6.350;2023-04-19T01:02:51;96693.25;;;4.01;100.00
64610;BME280;51019;46.090;6.350;2023-04-19T01:05:20;96556.00;;;3.32;100.00
64610;BME280;51019;46.090;6.350;2023-04-19T01:07:48;96695.09;;;3.99;100.00
64610;BME280;51019;46.090;6.350;2023-04-19T01:10:15;96570.56;;;3.20;100.00
64610;BME280;51019;46.090;6.350;2023-04-19T01:12:46;96589.34;;;3.23;100.00
64610;BME280;51019;46.090;6.350;2023-04-19T01:15:13;96762.09;;;4.46;100.00
64610;BME280;51019;46.090;6.350;2023-04-19T01:17:41;96589.34;;;3.50;100.00
64610;BME280;51019;46.090;6.350;2023-04-19T01:20:10;96687.91;;;3.90;100.00
64610;BME280;51019;46.090;6.350;2023-04-19T01:22:39;96590.84;;;3.40;100.00
64610;BME280;51019;46.090;6.350;2023-04-19T01:25:08;96567.63;;;3.12;100.00
64610;BME280;51019;46.090;6.350;2023-04-19T01:27:36;96587.50;;;3.25;100.00
64610;BME280;51019;46.090;6.350;2023-04-19T01:30:04;96679.84;;;3.94;100.00
64610;BME280;51019;46.090;6.350;2023-04-19T01:32:34;96749.63;;;4.38;100.00
64610;BME280;51019;46.090;6.350;2023-04-19T01:35:02;96698.78;;;3.82;100.00
64610;BME280;51019;46.090;6.350;2023-04-19T01:37:31;96705.75;;;3.68;100.00
64610;BME280;51019;46.090;6.350;2023-04-19T01:40:03;96557.44;;;2.82;100.00
64610;BME280;51019;46.090;6.350;2023-04-19T01:42:32;96572.09;;;2.96;100.00
64610;BME280;51019;46.090;6.350;2023-04-19T01:45:00;96579.13;;;2.93;100.00
64610;BME280;51019;46.090;6.350;2023-04-19T01:47:28;96638.31;;;3.55;100.00
64610;BME280;51019;46.090;6.350;2023-04-19T01:49:56;96573.25;;;2.77;100.00
64610;BME280;51019;46.090;6.350;2023-04-19T01:52:23;96682.19;;;3.44;100.00
64610;BME280;51019;46.090;6.350;2023-04-19T01:54:50;96680.34;;;3.46;100.00
64610;BME280;51019;46.090;6.350;2023-04-19T01:57:23;96667.81;;;3.25;100.00
64610;BME280;51019;46.090;6.350;2023-04-19T01:59:51;96697.31;;;3.37;100.00
64610;BME280;51019;46.090;6.350;2023-04-19T02:02:19;96765.53;;;3.79;100.00
64610;BME280;51019;46.090;6.350;2023-04-19T02:04:47;96560.41;;;2.47;100.00
64610;BME280;51019;46.090;6.350;2023-04-19T02:07:15;96560.47;;;2.60;100.00
64610;BME280;51019;46.090;6.350;2023-04-19T02:09:43;96541.75;;;2.42;100.00
64610;BME280;51019;46.090;6.350;2023-04-19T02:12:10;96763.31;;;3.73;100.00
64610;BME280;51019;46.090;6.350;2023-04-19T02:14:40;96636.38;;;2.89;100.00
64610;BME280;51019;46.090;6.350;2023-04-19T02:17:08;96743.34;;;3.60;100.00
64610;BME280;51019;46.090;6.350;2023-04-19T02:19:36;96645.16;;;2.86;100.00
64610;BME280;51019;46.090;6.350;2023-04-19T02:22:04;96668.28;;;3.04;100.00
64610;BME280;51019;46.090;6.350;2023-04-19T02:24:32;96554.41;;;2.33;100.00
64610;BME280;51019;46.090;6.350;2023-04-19T02:27:00;96765.00;;;3.59;100.00
64610;BME280;51019;46.090;6.350;2023-04-19T02:29:27;96575.53;;;2.39;100.00
64610;BME280;51019;46.090;6.350;2023-04-19T02:31:57;96555.88;;;2.23;100.00
64610;BME280;51019;46.090;6.350;2023-04-19T02:34:26;96591.06;;;2.25;100.00
64610;BME280;51019;46.090;6.350;2023-04-19T02:36:53;96690.91;;;2.86;100.00
64610;BME280;51019;46.090;6.350;2023-04-19T02:39:20;96759.34;;;3.39;100.00
64610;BME280;51019;46.090;6.350;2023-04-19T02:41:48;96738.94;;;3.34;100.00
64610;BME280;51019;46.090;6.350;2023-04-19T02:44:15;96768.53;;;3.44;100.00
64610;BME280;51019;46.090;6.350;2023-04-19T02:46:47;96638.88;;;2.76;100.00
64610;BME280;51019;46.090;6.350;2023-04-19T02:49:17;96623.16;;;2.65;100.00
64610;BME280;51019;46.090;6.350;2023-04-19T02:51:45;96659.47;;;2.64;100.00
64610;BME280;51019;46.090;6.350;2023-04-19T02:54:12;96668.44;;;2.58;100.00
64610;BME280;51019;46.090;6.350;2023-04-19T02:56:40;96609.47;;;2.35;100.00
64610;BME280;51019;46.090;6.350;2023-04-19T02:59:08;96689.88;;;2.74;100.00
64610;BME280;51019;46.090;6.350;2023-04-19T03:01:35;96568.88;;;2.07;100.00
64610;BME280;51019;46.090;6.350;2023-04-19T03:04:03;96596.75;;;2.16;100.00
64610;BME280;51019;46.090;6.350;2023-04-19T03:06:32;96750.09;;;3.06;100.00
64610;BME280;51019;46.090;6.350;2023-04-19T03:08:59;96631.50;;;2.12;100.00
64610;BME280;51019;46.090;6.350;2023-04-19T03:11:27;96556.53;;;1.82;100.00
64610;BME280;51019;46.090;6.350;2023-04-19T03:13:55;96776.19;;;3.03;100.00
64610;BME280;51019;46.090;6.350;2023-04-19T03:16:23;96704.03;;;2.69;100.00
64610;BME280;51019;46.090;6.350;2023-04-19T03:18:51;96659.56;;;2.48;100.00
64610;BME280;51019;46.090;6.350;2023-04-19T03:21:21;96662.31;;;2.45;100.00
64610;BME280;51019;46.090;6.350;2023-04-19T03:23:53;96732.41;;;2.84;100.00
64610;BME280;51019;46.090;6.350;2023-04-19T03:26:21;96694.31;;;2.58;100.00
64610;BME280;51019;46.090;6.350;2023-04-19T03:28:49;96771.66;;;3.07;100.00
64610;BME280;51019;46.090;6.350;2023-04-19T03:31:17;96613.56;;;2.09;100.00
64610;BME280;51019;46.090;6.350;2023-04-19T03:33:44;96770.81;;;2.92;100.00
64610;BME280;51019;46.090;6.350;2023-04-19T03:36:12;96711.22;;;2.64;100.00
64610;BME280;51019;46.090;6.350;2023-04-19T03:38:39;96686.59;;;2.42;100.00
64610;BME280;51019;46.090;6.350;2023-04-19T03:41:20;96624.09;;;1.76;100.00
64610;BME280;51019;46.090;6.350;2023-04-19T03:43:48;96585.19;;;1.48;100.00
64610;BME280;51019;46.090;6.350;2023-04-19T03:46:21;96624.59;;;1.67;100.00
64610;BME280;51019;46.090;6.350;2023-04-19T03:48:48;96603.72;;;1.56;100.00
64610;BME280;51019;46.090;6.350;2023-04-19T03:51:16;96581.38;;;1.55;100.00
64610;BME280;51019;46.090;6.350;2023-04-19T03:53:45;96578.47;;;1.45;100.00
64610;BME280;51019;46.090;6.350;2023-04-19T03:56:12;96618.59;;;1.66;100.00
64610;BME280;51019;46.090;6.350;2023-04-19T03:58:41;96695.34;;;2.26;100.00
64610;BME280;51019;46.090;6.350;2023-04-19T04:01:17;96587.84;;;1.62;100.00
64610;BME280;51019;46.090;6.350;2023-04-19T04:03:44;96659.72;;;2.01;100.00
64610;BME280;51019;46.090;6.350;2023-04-19T04:06:12;96593.53;;;1.53;100.00
64610;BME280;51019;46.090;6.350;2023-04-19T04:08:40;96759.22;;;2.69;100.00
64610;BME280;51019;46.090;6.350;2023-04-19T04:11:08;96582.56;;;1.33;100.00
64610;BME280;51019;46.090;6.350;2023-04-19T04:13:35;96602.81;;;1.41;100.00
64610;BME280;51019;46.090;6.350;2023-04-19T04:16:05;96777.50;;;2.36;100.00
64610;BME280;51019;46.090;6.350;2023-04-19T04:18:33;96569.91;;;1.13;100.00
64610;BME280;51019;46.090;6.350;2023-04-19T04:21:01;96574.66;;;1.21;100.00
64610;BME280;51019;46.090;6.350;2023-04-19T04:23:28;96668.91;;;1.91;100.00
64610;BME280;51019;46.090;6.350;2023-04-19T04:25:59;96676.59;;;1.76;100.00
64610;BME280;51019;46.090;6.350;2023-04-19T04:28:29;96654.19;;;1.61;100.00
64610;BME280;51019;46.090;6.350;2023-04-19T04:30:58;96584.75;;;0.94;100.00
64610;BME280;51019;46.090;6.350;2023-04-19T04:33:28;96582.75;;;0.99;100.00
64610;BME280;51019;46.090;6.350;2023-04-19T04:35:55;96743.00;;;2.06;100.00
64610;BME280;51019;46.090;6.350;2023-04-19T04:38:24;96578.34;;;1.01;100.00
64610;BME280;51019;46.090;6.350;2023-04-19T04:40:52;96600.72;;;1.16;100.00
64610;BME280;51019;46.090;6.350;2023-04-19T04:43:21;96617.13;;;1.15;100.00
64610;BME280;51019;46.090;6.350;2023-04-19T04:45:49;96712.94;;;1.73;100.00
64610;BME280;51019;46.090;6.350;2023-04-19T04:48:19;96595.47;;;1.02;100.00
64610;BME280;51019;46.090;6.350;2023-04-19T04:50:49;96808.41;;;2.24;100.00
64610;BME280;51019;46.090;6.350;2023-04-19T04:53:17;96665.28;;;1.63;100.00
64610;BME280;51019;46.090;6.350;2023-04-19T04:55:44;96747.66;;;2.15;100.00
64610;BME280;51019;46.090;6.350;2023-04-19T04:58:12;96801.72;;;2.35;100.00
64610;BME280;51019;46.090;6.350;2023-04-19T05:00:40;96589.66;;;1.14;100.00
64610;BME280;51019;46.090;6.350;2023-04-19T05:03:07;96773.28;;;2.19;100.00
64610;BME280;51019;46.090;6.350;2023-04-19T05:05:35;96792.91;;;2.38;100.00
64610;BME280;51019;46.090;6.350;2023-04-19T05:08:05;96707.31;;;1.97;100.00
64610;BME280;51019;46.090;6.350;2023-04-19T05:10:32;96640.44;;;1.61;100.00
64610;BME280;51019;46.090;6.350;2023-04-19T05:13:01;96721.84;;;1.99;100.00
64610;BME280;51019;46.090;6.350;2023-04-19T05:15:28;96587.47;;;0.91;100.00
64610;BME280;51019;46.090;6.350;2023-04-19T05:17:56;96755.97;;;1.90;100.00
64610;BME280;51019;46.090;6.350;2023-04-19T05:20:23;96647.78;;;1.05;100.00
64610;BME280;51019;46.090;6.350;2023-04-19T05:22:55;96788.22;;;1.99;100.00
64610;BME280;51019;46.090;6.350;2023-04-19T05:25:25;96616.47;;;1.27;100.00
64610;BME280;51019;46.090;6.350;2023-04-19T05:27:54;96800.28;;;2.30;100.00
64610;BME280;51019;46.090;6.350;2023-04-19T05:30:22;96786.09;;;2.37;100.00
64610;BME280;51019;46.090;6.350;2023-04-19T05:32:49;96711.19;;;1.90;100.00
64610;BME280;51019;46.090;6.350;2023-04-19T05:35:17;96787.47;;;2.58;100.00
64610;BME280;51019;46.090;6.350;2023-04-19T05:37:45;96592.78;;;1.66;100.00
64610;BME280;51019;46.090;6.350;2023-04-19T05:40:12;96788.84;;;2.93;100.00
64610;BME280;51019;46.090;6.350;2023-04-19T05:42:43;96628.63;;;2.16;100.00
64610;BME280;51019;46.090;6.350;2023-04-19T05:45:10;96767.19;;;2.95;100.00
64610;BME280;51019;46.090;6.350;2023-04-19T05:47:40;96800.81;;;3.39;100.00
64610;BME280;51019;46.090;6.350;2023-04-19T05:50:07;96693.25;;;2.90;100.00
64610;BME280;51019;46.090;6.350;2023-04-19T05:52:35;96805.16;;;3.81;100.00
64610;BME280;51019;46.090;6.350;2023-04-19T05:55:03;96696.16;;;3.41;100.00
64610;BME280;51019;46.090;6.350;2023-04-19T05:57:31;96806.59;;;4.13;100.00
64610;BME280;51019;46.090;6.350;2023-04-19T06:00:01;96807.41;;;4.41;100.00
64610;BME280;51019;46.090;6.350;2023-04-19T06:02:29;96802.72;;;4.33;100.00
64610;BME280;51019;46.090;6.350;2023-04-19T06:04:56;96789.94;;;4.30;100.00
64610;BME280;51019;46.090;6.350;2023-04-19T06:07:24;96816.88;;;4.68;100.00
64610;BME280;51019;46.090;6.350;2023-04-19T06:09:52;96805.63;;;5.07;100.00
64610;BME280;51019;46.090;6.350;2023-04-19T06:12:19;96680.50;;;4.63;100.00
64610;BME280;51019;46.090;6.350;2023-04-19T06:14:46;96782.34;;;5.31;100.00
64610;BME280;51019;46.090;6.350;2023-04-19T06:17:16;96750.84;;;5.36;100.00
64610;BME280;51019;46.090;6.350;2023-04-19T06:19:47;96792.41;;;5.87;100.00
64610;BME280;51019;46.090;6.350;2023-04-19T06:22:15;96669.56;;;5.34;100.00
64610;BME280;51019;46.090;6.350;2023-04-19T06:24:43;96787.31;;;6.22;100.00
64610;BME280;51019;46.090;6.350;2023-04-19T06:27:11;96796.06;;;6.44;100.00
64610;BME280;51019;46.090;6.350;2023-04-19T06:29:38;96628.00;;;5.58;100.00
64610;BME280;51019;46.090;6.350;2023-04-19T06:32:06;96751.69;;;6.46;100.00
64610;BME280;51019;46.090;6.350;2023-04-19T06:34:36;96699.84;;;6.08;100.00
64610;BME280;51019;46.090;6.350;2023-04-19T06:37:04;96717.59;;;6.38;100.00
64610;BME280;51019;46.090;6.350;2023-04-19T06:39:32;96705.78;;;6.45;100.00
64610;BME280;51019;46.090;6.350;2023-04-19T06:42:00;96599.50;;;5.56;100.00
64610;BME280;51019;46.090;6.350;2023-04-19T06:44:28;96749.25;;;6.90;100.00
64610;BME280;51019;46.090;6.350;2023-04-19T06:46:56;96767.00;;;7.43;100.00
64610;BME280;51019;46.090;6.350;2023-04-19T06:49:23;96699.56;;;7.16;100.00
64610;BME280;51019;46.090;6.350;2023-04-19T06:51:52;96664.22;;;6.89;100.00
64610;BME280;51019;46.090;6.350;2023-04-19T06:54:20;96670.03;;;7.38;100.00
64610;BME280;51019;46.090;6.350;2023-04-19T06:56:48;96684.97;;;7.58;100.00
64610;BME280;51019;46.090;6.350;2023-04-19T06:59:18;96755.47;;;8.12;100.00
64610;BME280;51019;46.090;6.350;2023-04-19T07:01:46;96783.19;;;8.79;100.00
64610;BME280;51019;46.090;6.350;2023-04-19T07:04:14;96694.75;;;8.63;100.00
64610;BME280;51019;46.090;6.350;2023-04-19T07:06:41;96778.84;;;9.30;100.00
64610;BME280;51019;46.090;6.350;2023-04-19T07:09:11;96638.69;;;8.46;100.00
64610;BME280;51019;46.090;6.350;2023-04-19T07:11:38;96778.38;;;9.36;100.00
64610;BME280;51019;46.090;6.350;2023-04-19T07:14:06;96771.31;;;9.58;100.00
64610;BME280;51019;46.090;6.350;2023-04-19T07:16:33;96743.78;;;9.63;100.00
64610;BME280;51019;46.090;6.350;2023-04-19T07:19:01;96782.25;;;10.12;100.00
64610;BME280;51019;46.090;6.350;2023-04-19T07:21:29;96786.09;;;10.08;100.00
64610;BME280;51019;46.090;6.350;2023-04-19T07:23:57;96737.41;;;9.96;100.00
64610;BME280;51019;46.090;6.350;2023-04-19T07:26:27;96634.44;;;9.76;100.00
64610;BME280;51019;46.090;6.350;2023-04-19T07:28:55;96780.03;;;10.67;100.00
64610;BME280;51019;46.090;6.350;2023-04-19T07:31:23;96684.44;;;10.23;100.00
64610;BME280;51019;46.090;6.350;2023-04-19T07:33:50;96761.69;;;10.58;100.00
64610;BME280;51019;46.090;6.350;2023-04-19T07:36:18;96761.97;;;10.64;100.00
64610;BME280;51019;46.090;6.350;2023-04-19T07:38:46;96781.44;;;10.90;100.00
64610;BME280;51019;46.090;6.350;2023-04-19T07:41:13;96726.25;;;10.82;100.00
64610;BME280;51019;46.090;6.350;2023-04-19T07:43:43;96740.25;;;11.20;100.00
64610;BME280;51019;46.090;6.350;2023-04-19T07:46:10;96736.66;;;11.21;100.00
64610;BME280;51019;46.090;6.350;2023-04-19T07:48:38;96764.00;;;11.38;100.00
64610;BME280;51019;46.090;6.350;2023-04-19T07:51:09;96791.78;;;12.14;100.00
64610;BME280;51019;46.090;6.350;2023-04-19T07:53:38;96783.59;;;12.45;100.00
64610;BME280;51019;46.090;6.350;2023-04-19T07:56:06;96756.50;;;11.89;100.00
64610;BME280;51019;46.090;6.350;2023-04-19T07:58:34;96786.19;;;11.43;100.00
64610;BME280;51019;46.090;6.350;2023-04-19T08:01:04;96784.50;;;11.61;100.00
64610;BME280;51019;46.090;6.350;2023-04-19T08:03:32;96761.09;;;11.31;100.00
64610;BME280;51019;46.090;6.350;2023-04-19T08:06:00;96774.31;;;11.49;100.00
64610;BME280;51019;46.090;6.350;2023-04-19T08:08:29;96777.47;;;11.52;100.00
64610;BME280;51019;46.090;6.350;2023-04-19T08:10:57;96706.63;;;10.77;100.00
64610;BME280;51019;46.090;6.350;2023-04-19T08:13:26;96655.75;;;10.41;100.00
64610;BME280;51019;46.090;6.350;2023-04-19T08:15:53;96778.44;;;11.61;100.00
64610;BME280;51019;46.090;6.350;2023-04-19T08:18:23;96714.66;;;11.41;100.00
64610;BME280;51019;46.090;6.350;2023-04-19T08:20:50;96752.47;;;11.58;100.00
64610;BME280;51019;46.090;6.350;2023-04-19T08:23:18;96768.06;;;12.06;100.00
64610;BME280;51019;46.090;6.350;2023-04-19T08:25:45;96659.50;;;11.14;100.00
64610;BME280;51019;46.090;6.350;2023-04-19T08:28:13;96786.63;;;12.50;100.00
64610;BME280;51019;46.090;6.350;2023-04-19T08:30:40;96677.16;;;12.13;100.00
64610;BME280;51019;46.090;6.350;2023-04-19T08:33:08;96754.75;;;12.53;100.00
64610;BME280;51019;46.090;6.350;2023-04-19T08:35:38;96755.72;;;12.34;100.00
64610;BME280;51019;46.090;6.350;2023-04-19T08:38:06;96760.31;;;13.03;100.00
64610;BME280;51019;46.090;6.350;2023-04-19T08:40:34;96757.66;;;13.38;98.16
64610;BME280;51019;46.090;6.350;2023-04-19T08:43:04;96755.63;;;13.58;97.76
64610;BME280;51019;46.090;6.350;2023-04-19T08:45:32;96649.94;;;12.93;100.00
64610;BME280;51019;46.090;6.350;2023-04-19T08:48:00;96661.03;;;12.87;95.68
64610;BME280;51019;46.090;6.350;2023-04-19T08:50:28;96738.06;;;13.67;94.99
64610;BME280;51019;46.090;6.350;2023-04-19T08:52:59;96748.94;;;13.98;94.90
64610;BME280;51019;46.090;6.350;2023-04-19T08:55:27;96751.28;;;14.43;94.12
64610;BME280;51019;46.090;6.350;2023-04-19T08:57:56;96591.16;;;14.03;91.64
64610;BME280;51019;46.090;6.350;2023-04-19T09:00:24;96734.63;;;14.50;83.27
64610;BME280;51019;46.090;6.350;2023-04-19T09:02:52;96705.31;;;15.18;77.34
64610;BME280;51019;46.090;6.350;2023-04-19T09:05:20;96650.75;;;14.70;76.67
64610;BME280;51019;46.090;6.350;2023-04-19T09:07:48;96748.66;;;15.48;75.00
64610;BME280;51019;46.090;6.350;2023-04-19T09:10:19;96707.13;;;14.11;82.48
64610;BME280;51019;46.090;6.350;2023-04-19T09:13:00;96743.53;;;14.58;81.48
64610;BME280;51019;46.090;6.350;2023-04-19T09:15:35;96740.28;;;15.29;78.09
64610;BME280;51019;46.090;6.350;2023-04-19T09:18:05;96739.97;;;14.83;78.00
64610;BME280;51019;46.090;6.350;2023-04-19T09:20:37;96732.75;;;14.35;75.53
64610;BME280;51019;46.090;6.350;2023-04-19T09:23:07;96732.47;;;13.96;77.39
64610;BME280;51019;46.090;6.350;2023-04-19T09:25:38;96652.00;;;13.67;76.63
64610;BME280;51019;46.090;6.350;2023-04-19T09:28:09;96725.38;;;14.46;78.10
64610;BME280;51019;46.090;6.350;2023-04-19T09:30:37;96684.66;;;15.30;74.01
64610;BME280;51019;46.090;6.350;2023-04-19T09:33:05;96639.16;;;14.39;72.48
64610;BME280;51019;46.090;6.350;2023-04-19T09:35:39;96697.66;;;15.48;72.33
64610;BME280;51019;46.090;6.350;2023-04-19T09:38:07;96718.81;;;15.56;74.43
64610;BME280;51019;46.090;6.350;2023-04-19T09:40:34;96710.03;;;16.95;70.54
64610;BME280;51019;46.090;6.350;2023-04-19T09:43:03;96705.81;;;16.55;70.53
64610;BME280;51019;46.090;6.350;2023-04-19T09:45:41;96703.19;;;15.85;73.52
64610;BME280;51019;46.090;6.350;2023-04-19T09:48:10;96685.22;;;14.77;76.01
64610;BME280;51019;46.090;6.350;2023-04-19T09:50:50;96671.78;;;14.30;75.50
64610;BME280;51019;46.090;6.350;2023-04-19T09:53:18;96697.59;;;14.10;77.46
64610;BME280;51019;46.090;6.350;2023-04-19T09:55:45;96693.72;;;14.38;77.05
64610;BME280;51019;46.090;6.350;2023-04-19T09:58:15;96637.94;;;15.55;71.10
64610;BME280;51019;46.090;6.350;2023-04-19T10:00:43;96631.72;;;15.79;68.51
64610;BME280;51019;46.090;6.350;2023-04-19T10:03:13;96678.91;;;15.26;73.33
64610;BME280;51019;46.090;6.350;2023-04-19T10:05:42;96679.91;;;15.17;71.20
64610;BME280;51019;46.090;6.350;2023-04-19T10:08:11;96678.28;;;15.00;75.88
64610;BME280;51019;46.090;6.350;2023-04-19T10:10:38;96572.75;;;14.19;72.92
64610;BME280;51019;46.090;6.350;2023-04-19T10:13:10;96655.50;;;16.10;70.07
64610;BME280;51019;46.090;6.350;2023-04-19T10:15:40;96668.97;;;16.77;67.84
64610;BME280;51019;46.090;6.350;2023-04-19T10:18:09;96646.75;;;16.63;71.75
64610;BME280;51019;46.090;6.350;2023-04-19T10:20:44;96588.75;;;15.46;70.98
64610;BME280;51019;46.090;6.350;2023-04-19T10:23:13;96600.94;;;15.47;69.89
64610;BME280;51019;46.090;6.350;2023-04-19T10:25:45;96594.97;;;15.06;69.92
64610;BME280;51019;46.090;6.350;2023-04-19T10:28:14;96647.34;;;15.41;71.69
64610;BME280;51019;46.090;6.350;2023-04-19T10:30:53;96626.03;;;16.21;69.11
64610;BME280;51019;46.090;6.350;2023-04-19T10:33:25;96633.56;;;16.78;67.53
64610;BME280;51019;46.090;6.350;2023-04-19T10:35:55;96647.28;;;16.58;67.42
64610;BME280;51019;46.090;6.350;2023-04-19T10:38:37;96644.53;;;16.21;68.25
64610;BME280;51019;46.090;6.350;2023-04-19T10:41:06;96617.13;;;16.45;67.03
64610;BME280;51019;46.090;6.350;2023-04-19T10:43:39;96590.28;;;17.23;64.67
64610;BME280;51019;46.090;6.350;2023-04-19T10:46:12;96640.94;;;16.67;67.95
64610;BME280;51019;46.090;6.350;2023-04-19T10:48:49;96541.50;;;15.82;68.24
64610;BME280;51019;46.090;6.350;2023-04-19T10:51:20;96636.84;;;17.02;66.28
64610;BME280;51019;46.090;6.350;2023-04-19T10:53:58;96631.56;;;17.47;63.78
64610;BME280;51019;46.090;6.350;2023-04-19T10:59:30;96614.28;;;17.51;64.56
64610;BME280;51019;46.090;6.350;2023-04-19T11:02:00;96545.16;;;17.16;64.90
64610;BME280;51019;46.090;6.350;2023-04-19T11:04:56;96617.59;;;17.53;62.98
64610;BME280;51019;46.090;6.350;2023-04-19T11:07:25;96527.66;;;17.15;63.58
64610;BME280;51019;46.090;6.350;2023-04-19T11:09:52;96588.47;;;18.03;62.06
64610;BME280;51019;46.090;6.350;2023-04-19T11:12:20;96610.38;;;17.76;62.08
64610;BME280;51019;46.090;6.350;2023-04-19T11:14:50;96585.66;;;17.90;61.61
64610;BME280;51019;46.090;6.350;2023-04-19T11:17:21;96532.16;;;17.51;63.97
64610;BME280;51019;46.090;6.350;2023-04-19T11:19:53;96589.75;;;18.50;60.79
64610;BME280;51019;46.090;6.350;2023-04-19T11:22:28;96585.09;;;18.73;62.25
64610;BME280;51019;46.090;6.350;2023-04-19T11:24:56;96565.69;;;18.09;58.24
64610;BME280;51019;46.090;6.350;2023-04-19T11:27:23;96583.97;;;18.89;58.09
64610;BME280;51019;46.090;6.350;2023-04-19T11:29:51;96563.88;;;18.73;58.09
64610;BME280;51019;46.090;6.350;2023-04-19T11:32:22;96545.34;;;18.37;56.62
64610;BME280;51019;46.090;6.350;2023-04-19T11:34:49;96566.16;;;19.11;56.39
64610;BME280;51019;46.090;6.350;2023-04-19T11:37:16;96568.91;;;19.58;57.74
64610;BME280;51019;46.090;6.350;2023-04-19T11:39:45;96559.06;;;19.52;57.12
64610;BME280;51019;46.090;6.350;2023-04-19T11:42:17;96558.94;;;18.70;58.36
64610;BME280;51019;46.090;6.350;2023-04-19T11:44:49;96556.53;;;19.10;57.51
64610;BME280;51019;46.090;6.350;2023-04-19T11:47:17;96486.19;;;18.65;57.59
64610;BME280;51019;46.090;6.350;2023-04-19T11:49:47;96545.69;;;19.46;53.24
64610;BME280;51019;46.090;6.350;2023-04-19T11:52:19;96435.25;;;18.82;55.83
64610;BME280;51019;46.090;6.350;2023-04-19T11:54:47;96537.81;;;19.18;55.91
64610;BME280;51019;46.090;6.350;2023-04-19T11:57:14;96526.81;;;19.62;52.45
64610;BME280;51019;46.090;6.350;2023-04-19T12:00:02;96429.94;;;18.82;57.12
64610;BME280;51019;46.090;6.350;2023-04-19T12:02:37;96519.69;;;19.35;55.42
64610;BME280;51019;46.090;6.350;2023-04-19T12:05:11;96515.22;;;19.89;55.01
64610;BME280;51019;46.090;6.350;2023-04-19T12:07:58;96514.03;;;20.12;54.59
64610;BME280;51019;46.090;6.350;2023-04-19T12:10:25;96513.59;;;19.95;55.02
64610;BME280;51019;46.090;6.350;2023-04-19T12:12:53;96504.72;;;19.62;54.23
64610;BME280;51019;46.090;6.350;2023-04-19T12:15:20;96501.94;;;20.03;54.56
64610;BME280;51019;46.090;6.350;2023-04-19T12:17:55;96496.69;;;20.42;54.96
64610;BME280;51019;46.090;6.350;2023-04-19T12:20:32;96454.06;;;20.03;52.42
64610;BME280;51019;46.090;6.350;2023-04-19T12:23:00;96495.88;;;20.48;52.83
64610;BME280;51019;46.090;6.350;2023-04-19T12:25:29;96497.91;;;20.73;54.51
64610;BME280;51019;46.090;6.350;2023-04-19T12:27:58;96490.97;;;20.65;52.09
64610;BME280;51019;46.090;6.350;2023-04-19T12:30:26;96478.28;;;20.54;53.10
64610;BME280;51019;46.090;6.350;2023-04-19T12:32:53;96480.91;;;20.74;55.01
64610;BME280;51019;46.090;6.350;2023-04-19T12:35:21;96481.50;;;20.82;53.77
64610;BME280;51019;46.090;6.350;2023-04-19T12:37:51;96462.09;;;20.36;52.65
64610;BME280;51019;46.090;6.350;2023-04-19T12:40:19;96374.88;;;19.91;50.56
64610;BME280;51019;46.090;6.350;2023-04-19T12:42:47;96477.44;;;20.73;50.47
64610;BME280;51019;46.090;6.350;2023-04-19T12:45:15;96461.44;;;20.86;51.58
64610;BME280;51019;46.090;6.350;2023-04-19T12:47:43;96466.94;;;20.85;50.85
64610;BME280;51019;46.090;6.350;2023-04-19T12:50:12;96460.44;;;20.28;50.90
64610;BME280;51019;46.090;6.350;2023-04-19T12:52:39;96450.00;;;20.46;52.68
64610;BME280;51019;46.090;6.350;2023-04-19T12:55:09;96436.91;;;20.38;56.05
64610;BME280;51019;46.090;6.350;2023-04-19T12:57:36;96377.72;;;20.23;53.92
64610;BME280;51019;46.090;6.350;2023-04-19T13:00:05;96432.59;;;20.63;51.09
64610;BME280;51019;46.090;6.350;2023-04-19T13:02:34;96442.94;;;20.91;55.52
64610;BME280;51019;46.090;6.350;2023-04-19T13:05:01;96441.03;;;21.12;54.29
64610;BME280;51019;46.090;6.350;2023-04-19T13:07:29;96384.03;;;20.61;52.10
64610;BME280;51019;46.090;6.350;2023-04-19T13:09:57;96310.81;;;20.13;50.93
64610;BME280;51019;46.090;6.350;2023-04-19T13:12:27;96437.28;;;20.68;53.14